createdAt,value
2022-09-25T00:00:59.450Z,11.07
2022-09-25T00:03:27.812Z,8.25
2022-09-25T00:06:00.401Z,5.32
2022-09-25T00:08:26.863Z,7.95
2022-09-25T00:10:53.310Z,6.57
2022-09-25T00:13:22.188Z,4.78
2022-09-25T00:15:49.704Z,6.05
2022-09-25T00:18:16.739Z,7.47
2022-09-25T00:20:43.884Z,7.93
2022-09-25T00:23:10.390Z,5.53
2022-09-25T00:25:36.890Z,6.05
2022-09-25T00:28:03.715Z,7.13
2022-09-25T00:30:30.327Z,6.40
2022-09-25T00:32:57.063Z,7.63
2022-09-25T00:35:23.560Z,10.75
2022-09-25T00:37:50.020Z,11.63
2022-09-25T00:40:16.666Z,6.35
2022-09-25T00:42:44.108Z,7.35
2022-09-25T00:45:16.011Z,6.85
2022-09-25T00:47:49.531Z,6.93
2022-09-25T00:50:28.106Z,10.00
2022-09-25T00:52:56.327Z,9.18
2022-09-25T00:55:26.213Z,6.78
2022-09-25T00:57:54.238Z,6.38
2022-09-25T01:00:20.748Z,7.88
2022-09-25T01:02:53.259Z,7.70
2022-09-25T01:05:21.895Z,9.50
2022-09-25T01:07:49.891Z,4.40
2022-09-25T01:10:17.339Z,5.72
2022-09-25T01:12:45.922Z,7.72
2022-09-25T01:15:13.540Z,10.45
2022-09-25T01:17:53.600Z,8.32
2022-09-25T01:20:22.910Z,8.63
2022-09-25T01:22:55.427Z,10.27
2022-09-25T01:25:40.871Z,6.50
2022-09-25T01:28:21.824Z,6.93
2022-09-25T01:30:51.055Z,4.40
2022-09-25T01:33:19.322Z,5.57
2022-09-25T01:35:49.008Z,7.50
2022-09-25T01:38:15.480Z,12.25
2022-09-25T01:40:52.747Z,4.43
2022-09-25T01:43:34.444Z,7.22
2022-09-25T01:46:02.321Z,5.10
2022-09-25T01:48:31.458Z,6.53
2022-09-25T01:51:02.841Z,6.45
2022-09-25T01:53:32.654Z,5.63
2022-09-25T01:56:02.797Z,9.90
2022-09-25T01:58:32.618Z,2.88
2022-09-25T02:01:06.634Z,4.38
2022-09-25T02:03:36.868Z,10.50
2022-09-25T02:06:05.931Z,8.43
2022-09-25T02:08:35.473Z,3.92
2022-09-25T02:11:03.740Z,6.97
2022-09-25T02:13:37.337Z,9.98
2022-09-25T02:16:06.884Z,8.95
2022-09-25T02:18:52.046Z,3.95
2022-09-25T02:21:27.723Z,7.93
2022-09-25T02:24:01.167Z,7.43
2022-09-25T02:26:32.056Z,7.07
2022-09-25T02:28:58.742Z,4.43
2022-09-25T02:31:31.190Z,4.43
2022-09-25T02:33:58.227Z,6.40
2022-09-25T02:36:24.766Z,8.00
2022-09-25T02:38:52.837Z,6.18
2022-09-25T02:41:28.923Z,6.22
2022-09-25T02:44:13.804Z,4.90
2022-09-25T02:47:00.719Z,4.43
2022-09-25T02:49:27.452Z,4.93
2022-09-25T02:51:56.888Z,8.82
2022-09-25T02:54:25.771Z,6.40
2022-09-25T02:57:01.385Z,9.23
2022-09-25T02:59:36.060Z,4.93
2022-09-25T03:02:02.854Z,4.93
2022-09-25T03:04:29.691Z,6.60
2022-09-25T03:06:56.845Z,6.15
2022-09-25T03:09:23.610Z,4.35
2022-09-25T03:11:50.311Z,4.30
2022-09-25T03:14:16.802Z,6.65
2022-09-25T03:16:56.344Z,8.32
2022-09-25T03:19:24.065Z,5.22
2022-09-25T03:21:51.277Z,7.25
2022-09-25T03:24:18.092Z,5.57
2022-09-25T03:26:44.671Z,8.77
2022-09-25T03:29:15.042Z,8.00
2022-09-25T03:31:42.723Z,4.00
2022-09-25T03:34:10.058Z,4.85
2022-09-25T03:36:37.067Z,5.80
2022-09-25T03:39:03.615Z,7.75
2022-09-25T03:41:31.019Z,8.77
2022-09-25T03:43:57.825Z,7.50
2022-09-25T03:46:28.735Z,4.53
2022-09-25T03:48:55.693Z,4.38
2022-09-25T03:51:22.247Z,5.85
2022-09-25T03:53:49.216Z,4.18
2022-09-25T03:56:20.425Z,6.05
2022-09-25T03:58:47.856Z,8.63
2022-09-25T04:01:15.017Z,7.20
2022-09-25T04:03:47.248Z,5.40
2022-09-25T04:06:15.306Z,4.15
2022-09-25T04:08:41.897Z,5.70
2022-09-25T04:11:08.334Z,9.00
2022-09-25T04:13:38.644Z,6.68
2022-09-25T04:16:06.356Z,6.22
2022-09-25T04:18:33.187Z,6.32
2022-09-25T04:21:04.433Z,8.10
2022-09-25T04:23:31.038Z,5.07
2022-09-25T04:25:57.979Z,2.97
2022-09-25T04:28:25.058Z,3.72
2022-09-25T04:30:51.493Z,5.07
2022-09-25T04:33:37.245Z,5.72
2022-09-25T04:36:04.351Z,4.68
2022-09-25T04:38:33.556Z,8.88
2022-09-25T04:41:00.333Z,4.28
2022-09-25T04:43:29.501Z,8.48
2022-09-25T04:45:56.036Z,5.40
2022-09-25T04:48:22.527Z,4.93
2022-09-25T04:50:51.801Z,4.70
2022-09-25T04:53:18.559Z,6.38
2022-09-25T04:55:46.650Z,3.72
2022-09-25T04:58:13.127Z,5.20
2022-09-25T05:00:41.002Z,3.85
2022-09-25T05:03:07.644Z,3.80
2022-09-25T05:05:35.294Z,6.60
2022-09-25T05:08:02.422Z,6.32
2022-09-25T05:10:32.620Z,6.80
2022-09-25T05:13:00.108Z,4.05
2022-09-25T05:15:28.156Z,7.97
2022-09-25T05:18:05.164Z,6.30
2022-09-25T05:20:31.663Z,5.88
2022-09-25T05:22:58.586Z,6.05
2022-09-25T05:25:25.933Z,4.13
2022-09-25T05:27:55.881Z,7.03
2022-09-25T05:30:22.839Z,3.88
2022-09-25T05:32:49.874Z,6.72
2022-09-25T05:35:17.339Z,5.95
2022-09-25T05:37:43.790Z,6.60
2022-09-25T05:40:10.454Z,6.78
2022-09-25T05:42:37.019Z,8.18
2022-09-25T05:45:07.589Z,2.90
2022-09-25T05:47:34.341Z,3.25
2022-09-25T05:50:00.784Z,5.95
2022-09-25T05:52:27.240Z,6.10
2022-09-25T05:54:53.679Z,3.92
2022-09-25T05:57:20.138Z,5.95
2022-09-25T05:59:46.648Z,3.95
2022-09-25T06:02:13.203Z,4.97
2022-09-25T06:04:39.661Z,9.43
2022-09-25T06:07:06.146Z,4.03
2022-09-25T06:09:32.589Z,3.95
2022-09-25T06:11:59.046Z,6.28
2022-09-25T06:14:25.539Z,3.17
2022-09-25T06:16:52.464Z,4.72
2022-09-25T06:19:18.954Z,1.95
2022-09-25T06:21:45.382Z,6.82
2022-09-25T06:24:11.956Z,2.15
2022-09-25T06:26:38.513Z,5.72
2022-09-25T06:29:07.185Z,5.03
2022-09-25T06:31:34.403Z,4.57
2022-09-25T06:34:01.564Z,5.07
2022-09-25T06:36:28.195Z,4.55
2022-09-25T06:38:55.911Z,4.32
2022-09-25T06:41:22.667Z,4.80
2022-09-25T06:43:50.046Z,3.78
2022-09-25T06:46:16.995Z,4.43
2022-09-25T06:48:43.850Z,6.90
2022-09-25T06:51:11.755Z,7.30
2022-09-25T06:53:38.243Z,5.75
2022-09-25T06:56:05.642Z,4.70
2022-09-25T06:58:32.179Z,3.53
2022-09-25T07:00:58.713Z,2.53
2022-09-25T07:03:43.800Z,4.55
2022-09-25T07:06:11.142Z,7.90
2022-09-25T07:08:37.655Z,3.03
2022-09-25T07:11:04.326Z,3.47
2022-09-25T07:13:32.352Z,5.03
2022-09-25T07:16:10.733Z,6.55
2022-09-25T07:18:37.227Z,4.22
2022-09-25T07:21:08.411Z,4.07
2022-09-25T07:23:35.444Z,7.53
2022-09-25T07:26:05.890Z,5.43
2022-09-25T07:28:32.363Z,4.78
2022-09-25T07:30:58.953Z,7.93
2022-09-25T07:33:25.496Z,2.58
2022-09-25T07:35:52.442Z,4.72
2022-09-25T07:38:19.582Z,5.13
2022-09-25T07:40:46.519Z,4.78
2022-09-25T07:43:13.114Z,3.72
2022-09-25T07:45:39.602Z,3.72
2022-09-25T07:48:06.385Z,2.08
2022-09-25T07:50:33.555Z,5.65
2022-09-25T07:53:00.019Z,3.60
2022-09-25T07:55:28.538Z,5.93
2022-09-25T07:57:58.163Z,2.05
2022-09-25T08:00:24.773Z,3.10
2022-09-25T08:02:58.012Z,4.05
2022-09-25T08:05:24.947Z,3.72
2022-09-25T08:07:52.430Z,4.25
2022-09-25T08:10:18.998Z,4.03
2022-09-25T08:12:46.056Z,4.20
2022-09-25T08:15:14.922Z,2.60
2022-09-25T08:17:41.556Z,3.17
2022-09-25T08:20:08.493Z,2.72
2022-09-25T08:22:35.374Z,4.05
2022-09-25T08:25:04.866Z,2.33
2022-09-25T08:27:31.559Z,2.60
2022-09-25T08:29:58.408Z,5.68
2022-09-25T08:32:24.911Z,3.85
2022-09-25T08:34:51.436Z,3.13
2022-09-25T08:37:19.651Z,1.50
2022-09-25T08:39:46.171Z,3.17
2022-09-25T08:42:17.311Z,2.35
2022-09-25T08:45:20.953Z,4.05
2022-09-25T08:48:08.958Z,1.73
2022-09-25T08:50:35.536Z,3.17
2022-09-25T08:56:06.171Z,3.00
2022-09-25T08:58:34.914Z,1.98
2022-09-25T09:01:03.834Z,1.40
2022-09-25T09:03:32.555Z,2.22
2022-09-25T09:06:03.932Z,1.92
2022-09-25T09:08:32.555Z,3.05
2022-09-25T09:11:01.774Z,5.40
2022-09-25T09:13:35.677Z,1.92
2022-09-25T09:16:10.508Z,3.42
2022-09-25T09:18:38.726Z,1.95
2022-09-25T09:21:05.194Z,2.10
2022-09-25T09:23:38.728Z,1.20
2022-09-25T09:26:25.482Z,2.85
2022-09-25T09:28:55.094Z,2.35
2022-09-25T09:31:24.574Z,1.65
2022-09-25T09:33:51.008Z,2.75
2022-09-25T09:36:26.583Z,2.58
2022-09-25T09:39:04.860Z,1.90
2022-09-25T09:41:54.813Z,3.10
2022-09-25T09:44:27.572Z,1.67
2022-09-25T09:47:06.380Z,3.42
2022-09-25T09:49:33.313Z,3.83
2022-09-25T09:52:00.194Z,1.38
2022-09-25T09:54:36.714Z,1.63
2022-09-25T09:57:05.879Z,1.85
2022-09-25T09:59:42.477Z,1.33
2022-09-25T10:02:30.066Z,3.60
2022-09-25T10:04:58.371Z,2.38
2022-09-25T10:07:27.117Z,3.35
2022-09-25T10:09:54.636Z,1.65
2022-09-25T10:12:32.998Z,1.23
2022-09-25T10:15:02.196Z,2.50
2022-09-25T10:17:29.875Z,2.67
2022-09-25T10:20:04.876Z,2.28
2022-09-25T10:22:37.432Z,2.22
2022-09-25T10:25:05.484Z,1.25
2022-09-25T10:27:33.292Z,1.63
2022-09-25T10:30:09.115Z,3.05
2022-09-25T10:32:42.361Z,1.70
2022-09-25T10:35:41.131Z,1.50
2022-09-25T10:38:18.909Z,1.35
2022-09-25T10:40:49.342Z,1.40
2022-09-25T10:43:17.673Z,2.35
2022-09-25T10:45:44.626Z,1.15
2022-09-25T10:49:05.677Z,2.03
2022-09-25T10:51:32.484Z,1.88
2022-09-25T10:54:11.275Z,1.77
2022-09-25T10:56:38.960Z,1.17
2022-09-25T10:59:19.869Z,1.70
2022-09-25T11:01:47.742Z,0.95
2022-09-25T11:04:18.768Z,1.20
2022-09-25T11:06:52.503Z,1.17
2022-09-25T11:09:20.758Z,1.85
2022-09-25T11:11:49.494Z,2.30
2022-09-25T11:14:19.420Z,2.10
2022-09-25T11:16:51.108Z,0.60
2022-09-25T11:19:31.213Z,1.30
2022-09-25T11:22:08.202Z,1.90
2022-09-25T11:24:40.710Z,1.15
2022-09-25T11:27:11.874Z,2.90
2022-09-25T11:29:44.402Z,0.88
2022-09-25T11:32:20.354Z,1.15
2022-09-25T11:34:55.339Z,2.20
2022-09-25T11:37:31.283Z,1.25
2022-09-25T11:40:42.743Z,2.72
2022-09-25T11:43:11.360Z,1.30
2022-09-25T11:45:47.597Z,1.90
2022-09-25T11:48:22.843Z,1.27
2022-09-25T11:51:14.651Z,1.73
2022-09-25T11:54:17.859Z,2.05
2022-09-25T11:56:53.639Z,1.10
2022-09-25T11:59:33.188Z,0.55
2022-09-25T12:02:23.085Z,2.90
2022-09-25T12:04:49.722Z,1.13
2022-09-25T12:07:16.134Z,0.90
2022-09-25T12:09:48.712Z,1.48
2022-09-25T12:12:26.340Z,2.72
2022-09-25T12:15:02.114Z,1.73
2022-09-25T12:17:28.776Z,2.13
2022-09-25T12:20:04.881Z,2.67
2022-09-25T12:22:37.502Z,1.05
2022-09-25T12:25:07.240Z,1.20
2022-09-25T12:27:42.141Z,2.05
2022-09-25T12:30:19.337Z,2.22
2022-09-25T12:32:45.787Z,1.23
2022-09-25T12:35:13.190Z,1.00
2022-09-25T12:37:49.219Z,0.65
2022-09-25T12:40:25.812Z,2.75
2022-09-25T12:43:03.059Z,2.17
2022-09-25T12:45:38.813Z,0.90
2022-09-25T12:48:05.329Z,1.50
2022-09-25T12:50:34.875Z,1.33
2022-09-25T12:53:04.439Z,1.50
2022-09-25T12:55:53.852Z,1.10
2022-09-25T12:58:26.677Z,0.55
2022-09-25T13:00:58.038Z,1.92
2022-09-25T13:03:33.272Z,0.52
2022-09-25T13:06:03.614Z,0.90
2022-09-25T13:08:35.835Z,2.20
2022-09-25T13:11:02.262Z,0.28
2022-09-25T13:13:31.323Z,0.38
2022-09-25T13:16:00.008Z,1.33
2022-09-25T13:18:29.476Z,0.93
2022-09-25T13:20:56.823Z,1.15
2022-09-25T13:23:31.599Z,1.08
2022-09-25T13:26:01.044Z,0.38
2022-09-25T13:28:29.978Z,0.73
2022-09-25T13:31:05.507Z,3.70
2022-09-25T13:33:38.325Z,0.70
2022-09-25T13:36:09.347Z,0.57
2022-09-25T13:38:58.290Z,0.63
2022-09-25T13:41:25.082Z,0.77
2022-09-25T13:44:11.719Z,1.08
2022-09-25T13:46:38.269Z,0.55
2022-09-25T13:49:23.514Z,0.40
2022-09-25T13:51:49.959Z,1.15
2022-09-25T13:54:16.372Z,0.75
2022-09-25T13:56:42.809Z,0.95
2022-09-25T13:59:13.953Z,1.30
2022-09-25T14:01:43.334Z,2.53
2022-09-25T14:04:16.017Z,2.72
2022-09-25T14:06:44.768Z,0.80
2022-09-25T14:09:14.518Z,0.70
2022-09-25T14:11:41.937Z,0.90
2022-09-25T14:14:10.256Z,1.02
2022-09-25T14:16:42.679Z,0.70
2022-09-25T14:19:09.325Z,1.05
2022-09-25T14:21:35.851Z,2.20
2022-09-25T14:24:12.798Z,1.13
2022-09-25T14:26:44.174Z,1.05
2022-09-25T14:29:17.934Z,1.20
2022-09-25T14:32:05.441Z,1.60
2022-09-25T14:34:55.658Z,3.45
2022-09-25T14:37:25.509Z,2.85
2022-09-25T14:40:14.139Z,3.00
2022-09-25T14:42:51.404Z,1.60
2022-09-25T14:45:36.510Z,2.00
2022-09-25T14:48:04.900Z,0.80
2022-09-25T14:50:34.614Z,2.75
2022-09-25T14:53:03.732Z,1.05
2022-09-25T14:55:35.059Z,1.85
2022-09-25T14:58:02.164Z,0.63
2022-09-25T15:00:29.379Z,2.47
2022-09-25T15:02:57.254Z,1.63
2022-09-25T15:05:26.697Z,0.93
2022-09-25T15:07:59.412Z,0.47
2022-09-25T15:10:38.804Z,0.73
2022-09-25T15:13:14.324Z,1.55
2022-09-25T15:15:40.870Z,1.52
2022-09-25T15:18:10.503Z,1.38
2022-09-25T15:20:40.757Z,2.45
2022-09-25T15:23:15.367Z,2.38
2022-09-25T15:25:43.430Z,2.67
2022-09-25T15:28:14.043Z,1.90
2022-09-25T15:30:43.670Z,1.67
2022-09-25T15:33:26.748Z,0.93
2022-09-25T15:35:54.399Z,3.00
2022-09-25T15:38:28.303Z,5.03
2022-09-25T15:40:55.901Z,1.25
2022-09-25T15:43:22.450Z,1.40
2022-09-25T15:46:07.285Z,1.60
2022-09-25T15:48:36.838Z,2.17
2022-09-25T15:51:15.339Z,1.80
2022-09-25T15:53:50.409Z,1.92
2022-09-25T15:56:16.872Z,1.17
2022-09-25T15:58:44.896Z,2.17
2022-09-25T16:01:31.078Z,1.45
2022-09-25T16:04:16.142Z,1.10
2022-09-25T16:06:43.782Z,1.67
2022-09-25T16:09:30.501Z,2.30
2022-09-25T16:12:15.874Z,2.28
2022-09-25T16:14:42.368Z,2.03
2022-09-25T16:17:15.774Z,4.97
2022-09-25T16:25:28.139Z,5.15
2022-09-25T16:27:59.472Z,4.45
2022-09-25T16:30:27.274Z,4.50
2022-09-25T16:32:56.381Z,6.20
2022-09-25T16:36:09.023Z,4.85
2022-09-25T16:38:31.395Z,3.28
2022-09-25T16:41:10.072Z,1.70
2022-09-25T16:43:39.424Z,2.50
2022-09-25T16:46:35.455Z,4.75
2022-09-25T16:49:02.217Z,3.92
2022-09-25T16:51:30.234Z,3.63
2022-09-25T16:53:59.958Z,1.92
2022-09-25T16:56:30.832Z,3.20
2022-09-25T16:58:58.620Z,3.08
2022-09-25T17:01:26.628Z,2.35
2022-09-25T17:03:55.469Z,5.05
2022-09-25T17:06:22.983Z,5.30
2022-09-25T17:08:49.647Z,8.27
2022-09-25T17:11:20.220Z,5.63
2022-09-25T17:13:47.537Z,7.13
2022-09-25T17:16:14.200Z,3.40
2022-09-25T17:18:41.471Z,6.80
2022-09-25T17:21:12.037Z,3.63
2022-09-25T17:23:40.060Z,4.30
2022-09-25T17:26:13.687Z,1.42
2022-09-25T17:28:40.280Z,2.78
2022-09-25T17:31:06.914Z,2.28
2022-09-25T17:33:33.691Z,4.35
2022-09-25T17:36:04.842Z,2.85
2022-09-25T17:38:34.498Z,2.53
2022-09-25T17:41:17.622Z,4.15
2022-09-25T17:43:44.734Z,4.65
2022-09-25T17:46:11.399Z,3.75
2022-09-25T17:48:38.028Z,3.40
2022-09-25T17:51:10.557Z,2.90
2022-09-25T17:53:37.092Z,4.38
2022-09-25T17:56:04.065Z,4.35
2022-09-25T17:58:31.130Z,4.78
2022-09-25T18:01:01.768Z,2.47
2022-09-25T18:03:31.325Z,3.08
2022-09-25T18:05:57.905Z,5.15
2022-09-25T18:08:24.422Z,2.65
2022-09-25T18:10:54.787Z,3.38
2022-09-25T18:13:21.774Z,1.75
2022-09-25T18:15:49.577Z,3.55
2022-09-25T18:18:16.271Z,4.47
2022-09-25T18:21:04.566Z,3.90
2022-09-25T18:23:34.767Z,6.53
2022-09-25T18:26:05.558Z,1.42
2022-09-25T18:28:32.000Z,2.35
2022-09-25T18:30:58.904Z,4.47
2022-09-25T18:33:25.675Z,4.22
2022-09-25T18:36:13.122Z,2.67
2022-09-25T18:38:40.122Z,3.22
2022-09-25T18:41:07.141Z,2.33
2022-09-25T18:43:34.183Z,2.75
2022-09-25T18:46:00.913Z,3.80
2022-09-25T18:48:28.005Z,1.92
2022-09-25T18:50:54.576Z,2.00
2022-09-25T18:53:21.100Z,1.50
2022-09-25T18:55:47.596Z,2.20
2022-09-25T18:58:14.040Z,2.28
2022-09-25T19:00:40.648Z,3.50
2022-09-25T19:03:07.173Z,2.80
2022-09-25T19:05:33.887Z,2.05
2022-09-25T19:08:00.409Z,3.90
2022-09-25T19:10:26.981Z,3.80
2022-09-25T19:12:53.463Z,5.32
2022-09-25T19:15:19.933Z,2.40
2022-09-25T19:17:47.008Z,6.53
2022-09-25T19:20:13.870Z,3.40
2022-09-25T19:22:41.452Z,4.45
2022-09-25T19:25:08.072Z,4.57
2022-09-25T19:27:34.541Z,4.88
2022-09-25T19:30:00.987Z,5.90
2022-09-25T19:32:27.600Z,5.85
2022-09-25T19:34:54.782Z,4.15
2022-09-25T19:37:24.114Z,3.17
2022-09-25T19:40:09.360Z,3.25
2022-09-25T19:42:37.458Z,3.05
2022-09-25T19:45:04.296Z,3.50
2022-09-25T19:47:31.867Z,2.03
2022-09-25T19:49:58.352Z,1.80
2022-09-25T19:52:24.895Z,3.88
2022-09-25T19:54:51.367Z,1.88
2022-09-25T19:57:18.195Z,3.50
2022-09-25T19:59:44.675Z,2.78
2022-09-25T20:02:11.310Z,1.80
2022-09-25T20:04:37.899Z,4.28
2022-09-25T20:07:04.400Z,2.90
2022-09-25T20:09:32.814Z,1.50
2022-09-25T20:12:01.375Z,1.77
2022-09-25T20:14:27.849Z,3.90
2022-09-25T20:16:55.154Z,1.80
2022-09-25T20:19:21.822Z,3.80
2022-09-25T20:21:48.586Z,3.47
2022-09-25T20:24:15.453Z,7.95
2022-09-25T20:26:41.906Z,1.90
2022-09-25T20:29:10.055Z,3.38
2022-09-25T20:31:37.079Z,4.95
2022-09-25T20:34:03.653Z,3.70
2022-09-25T20:36:30.334Z,6.13
2022-09-25T20:38:57.050Z,6.55
2022-09-25T20:41:25.055Z,8.63
2022-09-25T20:43:52.690Z,6.60
2022-09-25T20:46:22.285Z,4.93
2022-09-25T20:48:51.199Z,7.97
2022-09-25T20:51:24.063Z,8.63
2022-09-25T20:53:51.351Z,5.43
2022-09-25T20:56:18.190Z,3.78
2022-09-25T20:58:48.335Z,9.27
2022-09-25T21:01:19.132Z,4.97
2022-09-25T21:03:46.940Z,4.68
2022-09-25T21:06:14.859Z,5.47
2022-09-25T21:08:41.319Z,11.85
2022-09-25T21:11:08.109Z,9.55
2022-09-25T21:13:35.370Z,5.93
2022-09-25T21:16:04.335Z,9.30
2022-09-25T21:18:31.338Z,10.20
2022-09-25T21:21:07.895Z,5.15
2022-09-25T21:23:34.484Z,10.23
2022-09-25T21:26:04.026Z,9.77
2022-09-25T21:28:31.851Z,10.30
2022-09-25T21:31:06.172Z,7.63
2022-09-25T21:33:32.813Z,8.82
2022-09-25T21:35:59.583Z,8.60
2022-09-25T21:38:26.190Z,11.00
2022-09-25T21:41:00.801Z,14.38
2022-09-25T21:43:35.044Z,10.93
2022-09-25T21:46:08.939Z,6.90
2022-09-25T21:51:02.350Z,11.90
2022-09-25T21:53:29.263Z,15.70
2022-09-25T21:56:02.765Z,14.25
2022-09-25T21:58:29.694Z,13.32
2022-09-25T22:01:23.889Z,17.67
2022-09-25T22:03:51.972Z,11.70
2022-09-25T22:06:20.274Z,14.45
2022-09-25T22:08:51.116Z,21.50
2022-09-25T22:11:17.702Z,12.90
2022-09-25T22:13:44.907Z,14.73
2022-09-25T22:16:21.865Z,16.10
2022-09-25T22:19:17.632Z,12.95
2022-09-25T22:21:44.716Z,11.35
2022-09-25T22:24:11.388Z,12.23
2022-09-25T22:26:39.757Z,10.23
2022-09-25T22:29:06.656Z,14.98
2022-09-25T22:31:33.751Z,18.25
2022-09-25T22:34:07.043Z,15.70
2022-09-25T22:36:36.441Z,11.73
2022-09-25T22:39:03.783Z,8.00
2022-09-25T22:41:30.258Z,10.20
2022-09-25T22:43:59.611Z,14.13
2022-09-25T22:46:27.650Z,13.55
2022-09-25T22:48:54.140Z,18.48
2022-09-25T22:51:21.895Z,17.30
2022-09-25T22:53:48.642Z,17.83
2022-09-25T22:56:25.401Z,11.10
2022-09-25T22:58:53.741Z,15.38
2022-09-25T23:01:22.762Z,17.48
2022-09-25T23:03:49.518Z,17.60
2022-09-25T23:06:15.982Z,17.42
2022-09-25T23:08:42.468Z,14.75
2022-09-25T23:11:08.982Z,22.60
2022-09-25T23:13:36.507Z,14.38
2022-09-25T23:16:07.323Z,14.50
2022-09-25T23:18:37.200Z,21.85
2022-09-25T23:21:04.219Z,15.95
2022-09-25T23:23:31.023Z,23.40
2022-09-25T23:26:06.386Z,13.10
2022-09-25T23:28:37.100Z,17.85
2022-09-25T23:31:07.940Z,13.57
2022-09-25T23:33:34.478Z,16.73
2022-09-25T23:36:11.859Z,13.63
2022-09-25T23:38:38.648Z,14.38
2022-09-25T23:41:25.393Z,14.60
2022-09-25T23:43:52.414Z,10.18
2022-09-25T23:46:19.850Z,13.50
2022-09-25T23:48:46.621Z,18.98
2022-09-25T23:51:14.034Z,11.50
2022-09-25T23:53:41.219Z,21.17
2022-09-25T23:56:09.008Z,20.92
2022-09-25T23:58:35.478Z,22.42
